Time;durP1;ratioP1;P1;durP2;ratioP2;P2;SDS_P1;SDS_P2;PMS_P1;PMS_P2;Temp;Humidity;BMP_temperature;BMP_pressure;BME280_temperature;BME280_humidity;BME280_pressure;Samples;Min_cycle;Max_cycle;Signal;HPM_P1;HPM_P2
2023/05/08 00:01:35;;;;;;;5.10;2.85;;;16.40;99.90;;;;;;5092721;28;20039;-79
2023/05/08 00:04:01;;;;;;;4.85;3.10;;;16.50;99.90;;;;;;5092274;28;20613;-78
2023/05/08 00:06:26;;;;;;;6.45;3.10;;;16.50;99.90;;;;;;5094774;28;20052;-78
2023/05/08 00:08:53;;;;;;;3.75;2.92;;;16.50;99.90;;;;;;5094507;28;20032;-78
2023/05/08 00:11:19;;;;;;;4.53;2.72;;;16.40;99.90;;;;;;5095912;28;20552;-78
2023/05/08 00:13:45;;;;;;;6.78;2.90;;;16.40;99.90;;;;;;5095470;28;20052;-80
2023/05/08 00:16:11;;;;;;;7.57;3.20;;;16.50;99.90;;;;;;5095015;28;20118;-79
2023/05/08 00:18:37;;;;;;;6.25;3.00;;;16.50;99.90;;;;;;5094841;28;20024;-78
2023/05/08 00:21:06;;;;;;;7.03;2.55;;;16.50;99.90;;;;;;5094199;28;20604;-79
2023/05/08 00:23:32;;;;;;;4.57;2.90;;;16.50;99.90;;;;;;5094973;28;20050;-79
2023/05/08 00:25:57;;;;;;;6.75;3.35;;;16.50;99.90;;;;;;5094143;28;20137;-79
2023/05/08 00:28:23;;;;;;;5.13;3.33;;;16.50;99.90;;;;;;5095940;28;20054;-79
2023/05/08 00:30:49;;;;;;;5.45;3.13;;;16.50;99.90;;;;;;5094322;28;20032;-79
2023/05/08 00:33:15;;;;;;;6.05;3.03;;;16.40;99.90;;;;;;5094640;28;20024;-78
2023/05/08 00:35:41;;;;;;;4.82;3.05;;;16.40;99.90;;;;;;5095292;28;20035;-81
2023/05/08 00:38:07;;;;;;;4.18;2.72;;;16.40;99.90;;;;;;5093964;28;20024;-80
2023/05/08 00:40:33;;;;;;;5.20;3.20;;;16.40;99.90;;;;;;5093799;28;20048;-79
2023/05/08 00:42:59;;;;;;;6.00;3.58;;;16.30;99.90;;;;;;5095022;28;20036;-80
2023/05/08 00:45:32;;;;;;;4.28;3.13;;;16.30;99.90;;;;;;5095617;28;20028;-80
2023/05/08 00:47:57;;;;;;;6.53;3.70;;;16.30;99.90;;;;;;5093944;28;20019;-80
2023/05/08 00:50:23;;;;;;;6.32;3.60;;;16.30;99.90;;;;;;5095504;28;20101;-79
2023/05/08 00:52:49;;;;;;;5.43;3.90;;;16.30;99.90;;;;;;5093506;28;20024;-80
2023/05/08 00:55:15;;;;;;;7.47;3.63;;;16.30;99.90;;;;;;5095260;28;20028;-79
2023/05/08 00:57:41;;;;;;;8.63;4.25;;;16.30;99.90;;;;;;5094163;28;20024;-79
2023/05/08 01:00:08;;;;;;;6.45;3.80;;;16.30;99.90;;;;;;5095149;28;20461;-79
2023/05/08 01:02:34;;;;;;;6.72;4.07;;;16.40;99.90;;;;;;5094259;28;20058;-79
2023/05/08 01:04:59;;;;;;;5.43;3.92;;;16.30;99.90;;;;;;5093850;28;20028;-79
2023/05/08 01:07:25;;;;;;;6.55;4.35;;;16.40;99.90;;;;;;5094030;28;20031;-78
2023/05/08 01:09:52;;;;;;;6.00;5.03;;;16.40;99.90;;;;;;5093303;28;20039;-80
2023/05/08 01:12:45;;;;;;;6.85;4.10;;;16.40;99.90;;;;;;5094124;28;20049;-79
2023/05/08 01:15:17;;;;;;;7.80;4.28;;;16.30;99.90;;;;;;5093577;28;20058;-80
2023/05/08 01:17:56;;;;;;;6.10;4.30;;;16.40;99.90;;;;;;5093827;28;20035;-81
2023/05/08 01:20:45;;;;;;;5.57;4.53;;;16.40;99.90;;;;;;5094907;28;20028;-79
2023/05/08 01:23:47;;;;;;;7.18;4.70;;;16.40;99.90;;;;;;5093443;28;20024;-79
2023/05/08 01:26:50;;;;;;;8.13;4.57;;;16.40;99.90;;;;;;5093357;28;20028;-80
2023/05/08 01:29:43;;;;;;;9.57;4.85;;;16.40;99.90;;;;;;5093987;28;20062;-79
2023/05/08 01:32:18;;;;;;;10.68;4.85;;;16.40;99.90;;;;;;5093017;28;20039;-79
2023/05/08 01:35:02;;;;;;;12.35;4.72;;;16.50;99.90;;;;;;5093506;28;20482;-79
2023/05/08 01:37:41;;;;;;;10.45;5.00;;;16.50;99.90;;;;;;5093287;28;20035;-79
2023/05/08 01:40:32;;;;;;;9.70;5.32;;;16.40;99.90;;;;;;5092147;28;20052;-79
2023/05/08 01:43:07;;;;;;;7.88;4.90;;;16.40;99.90;;;;;;5093763;28;20034;-80
2023/05/08 01:45:39;;;;;;;8.90;4.65;;;16.40;99.90;;;;;;5093531;28;20412;-79
2023/05/08 01:48:09;;;;;;;9.50;4.88;;;16.40;99.90;;;;;;5093948;28;20024;-78
2023/05/08 01:50:51;;;;;;;11.52;5.47;;;16.40;99.90;;;;;;5094148;28;20077;-79
2023/05/08 01:53:42;;;;;;;6.85;5.00;;;16.40;99.90;;;;;;5093119;28;20031;-79
2023/05/08 01:56:15;;;;;;;8.32;5.25;;;16.40;99.90;;;;;;5085292;28;20031;-80
2023/05/08 01:58:42;;;;;;;8.27;5.00;;;16.30;99.90;;;;;;5093500;28;20024;-81
2023/05/08 02:01:10;;;;;;;8.52;5.00;;;16.30;99.90;;;;;;5092669;28;20028;-81
2023/05/08 02:03:38;;;;;;;9.02;5.85;;;16.30;99.90;;;;;;5093045;28;20031;-80
2023/05/08 02:06:05;;;;;;;9.07;5.15;;;16.30;99.90;;;;;;5092226;28;20023;-80
2023/05/08 02:08:32;;;;;;;6.95;4.85;;;16.30;99.90;;;;;;5092839;28;20032;-79
2023/05/08 02:10:59;;;;;;;8.00;4.97;;;16.30;99.90;;;;;;5092391;28;20028;-79
2023/05/08 02:13:26;;;;;;;10.52;5.18;;;16.30;99.90;;;;;;5092555;28;20035;-79
2023/05/08 02:15:55;;;;;;;13.50;8.55;;;16.30;99.90;;;;;;5092153;28;20028;-80
2023/05/08 02:18:24;;;;;;;35.17;19.40;;;16.30;99.90;;;;;;5092781;28;20024;-80
2023/05/08 02:20:52;;;;;;;26.63;16.80;;;16.20;99.90;;;;;;5092216;28;20123;-80
2023/05/08 02:23:21;;;;;;;16.17;10.95;;;16.20;99.90;;;;;;5093800;28;20024;-79
2023/05/08 02:25:49;;;;;;;15.27;9.57;;;16.20;99.90;;;;;;5092029;28;20028;-79
2023/05/08 02:28:16;;;;;;;11.23;8.45;;;16.20;99.90;;;;;;5092017;28;20461;-79
2023/05/08 02:30:43;;;;;;;21.70;11.68;;;16.30;99.90;;;;;;5092440;28;20028;-79
2023/05/08 02:33:11;;;;;;;20.70;10.55;;;16.30;99.90;;;;;;5091751;28;20547;-79
2023/05/08 02:35:39;;;;;;;13.85;7.15;;;16.30;99.90;;;;;;5092603;28;20024;-80
2023/05/08 02:38:09;;;;;;;8.93;6.43;;;16.30;99.90;;;;;;5091412;28;20032;-80
2023/05/08 02:40:36;;;;;;;8.82;5.65;;;16.40;99.90;;;;;;5093628;28;20127;-79
2023/05/08 02:43:02;;;;;;;9.13;5.97;;;16.40;99.90;;;;;;5092801;28;20078;-80
2023/05/08 02:45:35;;;;;;;9.98;6.45;;;16.30;99.90;;;;;;5092472;28;20476;-79
2023/05/08 02:48:10;;;;;;;12.68;5.90;;;16.40;99.90;;;;;;5091677;28;20024;-80
2023/05/08 02:51:20;;;;;;;11.05;6.05;;;16.40;99.90;;;;;;5092146;28;20032;-80
2023/05/08 02:53:58;;;;;;;7.80;5.28;;;16.30;99.90;;;;;;5011081;28;20022;-80
2023/05/08 02:56:37;;;;;;;8.57;6.18;;;16.30;99.90;;;;;;5085454;28;20078;-80
2023/05/08 02:59:17;;;;;;;11.15;6.00;;;16.30;99.90;;;;;;5091883;28;20024;-80
2023/05/08 03:02:01;;;;;;;14.27;6.30;;;16.20;99.90;;;;;;5093625;28;20042;-80
2023/05/08 03:04:53;;;;;;;8.63;5.93;;;16.20;99.90;;;;;;5092394;28;20024;-80
2023/05/08 03:07:24;;;;;;;9.52;5.82;;;16.20;99.90;;;;;;5081246;28;20046;-80
2023/05/08 03:09:56;;;;;;;10.23;6.60;;;16.20;99.90;;;;;;5092485;28;20071;-80
2023/05/08 03:12:25;;;;;;;9.57;5.97;;;16.20;99.90;;;;;;5092548;28;20070;-80
2023/05/08 03:14:59;;;;;;;9.93;5.25;;;16.20;99.90;;;;;;5092049;28;20028;-81
2023/05/08 03:17:27;;;;;;;8.82;5.68;;;16.30;99.90;;;;;;5092457;28;20024;-80
2023/05/08 03:19:56;;;;;;;8.50;5.28;;;16.20;99.90;;;;;;5091820;28;20190;-81
2023/05/08 03:22:24;;;;;;;12.73;6.40;;;16.20;99.90;;;;;;5093401;28;20453;-81
2023/05/08 03:24:52;;;;;;;8.48;5.93;;;16.20;99.90;;;;;;5092493;28;20028;-79
2023/05/08 03:27:19;;;;;;;10.45;6.25;;;16.20;99.90;;;;;;5093017;28;20039;-80
2023/05/08 03:29:45;;;;;;;10.10;6.10;;;16.20;99.90;;;;;;5092479;28;20031;-79
2023/05/08 03:32:13;;;;;;;9.05;5.45;;;16.20;99.90;;;;;;5091868;28;20029;-80
2023/05/08 03:34:39;;;;;;;9.52;5.80;;;16.20;99.90;;;;;;5092086;28;20032;-81
2023/05/08 03:37:05;;;;;;;7.50;5.75;;;16.20;99.90;;;;;;5091728;28;20107;-81
2023/05/08 03:39:31;;;;;;;8.48;5.65;;;16.20;99.90;;;;;;5095478;28;20059;-81
2023/05/08 03:41:57;;;;;;;10.20;5.90;;;16.20;99.90;;;;;;5096619;28;20032;-82
2023/05/08 03:44:23;;;;;;;10.00;5.90;;;16.30;99.90;;;;;;5097195;28;20477;-81
2023/05/08 03:46:51;;;;;;;8.63;6.07;;;16.20;99.90;;;;;;5096248;28;20036;-81
2023/05/08 03:49:18;;;;;;;9.80;6.10;;;16.20;99.90;;;;;;5095610;28;20056;-80
2023/05/08 03:51:44;;;;;;;9.68;6.65;;;16.30;99.90;;;;;;5096313;28;20036;-79
2023/05/08 03:54:10;;;;;;;10.70;6.75;;;16.30;99.90;;;;;;5095483;28;20450;-79
2023/05/08 03:56:36;;;;;;;9.27;6.20;;;16.30;99.90;;;;;;5095702;28;20073;-79
2023/05/08 03:59:20;;;;;;;10.05;6.93;;;16.30;99.90;;;;;;5094913;28;20122;-80
2023/05/08 04:01:57;;;;;;;11.05;6.72;;;16.30;99.90;;;;;;5095695;28;20035;-80
2023/05/08 04:04:26;;;;;;;9.38;6.60;;;16.30;99.90;;;;;;5096039;28;20062;-80
2023/05/08 04:07:07;;;;;;;12.32;7.35;;;16.20;99.90;;;;;;5095847;28;20028;-80
2023/05/08 04:10:10;;;;;;;11.80;6.63;;;16.20;99.90;;;;;;5095720;28;20032;-80
2023/05/08 04:12:42;;;;;;;14.57;7.28;;;16.10;99.90;;;;;;5095855;28;20354;-80
2023/05/08 04:15:12;;;;;;;13.07;7.85;;;16.10;99.90;;;;;;5096167;28;20024;-80
2023/05/08 04:18:08;;;;;;;9.77;6.85;;;16.10;99.90;;;;;;5096315;28;20024;-80
2023/05/08 04:20:37;;;;;;;10.88;7.05;;;16.10;99.90;;;;;;5093394;28;20035;-79
2023/05/08 04:23:04;;;;;;;13.50;7.40;;;16.20;99.90;;;;;;5095234;28;20032;-80
2023/05/08 04:25:34;;;;;;;14.10;7.47;;;16.20;99.90;;;;;;5096799;28;20464;-80
2023/05/08 04:28:01;;;;;;;12.75;7.05;;;16.20;99.90;;;;;;5095657;28;20093;-80
2023/05/08 04:30:27;;;;;;;14.02;7.78;;;16.30;99.90;;;;;;5096539;28;20487;-79
2023/05/08 04:32:53;;;;;;;11.88;7.38;;;16.20;99.90;;;;;;5094905;28;20028;-79
2023/05/08 04:35:19;;;;;;;12.85;8.00;;;16.20;99.90;;;;;;5094653;28;20055;-80
2023/05/08 04:37:46;;;;;;;12.32;7.20;;;16.20;99.90;;;;;;5095455;28;20024;-80
2023/05/08 04:40:11;;;;;;;15.70;8.07;;;16.30;99.90;;;;;;5094243;28;20471;-79
2023/05/08 04:42:38;;;;;;;14.63;7.90;;;16.20;99.90;;;;;;5095035;28;20119;-80
2023/05/08 04:45:05;;;;;;;14.07;8.73;;;16.20;99.90;;;;;;5095843;28;20531;-80
2023/05/08 04:47:30;;;;;;;12.60;8.30;;;16.30;99.90;;;;;;5095219;28;20028;-79
2023/05/08 04:49:56;;;;;;;10.95;7.55;;;16.30;99.90;;;;;;5095342;28;20070;-80
2023/05/08 04:52:21;;;;;;;13.98;8.48;;;16.30;99.90;;;;;;5094388;28;20016;-78
2023/05/08 04:54:47;;;;;;;12.38;8.25;;;16.40;99.90;;;;;;5094435;28;20028;-79
2023/05/08 04:57:13;;;;;;;12.90;7.65;;;16.30;99.90;;;;;;5094363;28;20020;-79
2023/05/08 04:59:38;;;;;;;14.05;8.55;;;16.40;99.90;;;;;;5095374;28;20035;-79
2023/05/08 05:02:06;;;;;;;12.80;7.80;;;16.40;99.90;;;;;;5094054;28;20020;-78
2023/05/08 05:04:34;;;;;;;12.38;7.63;;;16.40;99.90;;;;;;5094573;28;20035;-79
2023/05/08 05:07:00;;;;;;;14.93;8.02;;;16.40;99.90;;;;;;5095752;28;20360;-81
2023/05/08 05:09:26;;;;;;;14.32;8.07;;;16.40;99.90;;;;;;5094382;28;20067;-80
2023/05/08 05:11:51;;;;;;;15.43;8.15;;;16.40;99.90;;;;;;5094405;28;20133;-80
2023/05/08 05:14:17;;;;;;;11.73;8.00;;;16.40;99.90;;;;;;5093664;28;20032;-81
2023/05/08 05:16:43;;;;;;;12.13;7.70;;;16.40;99.90;;;;;;5094210;28;20423;-81
2023/05/08 05:19:08;;;;;;;12.90;7.57;;;16.40;99.90;;;;;;5095053;28;20115;-80
2023/05/08 05:21:36;;;;;;;12.48;7.65;;;16.40;99.90;;;;;;5093792;28;20054;-81
2023/05/08 05:24:02;;;;;;;13.73;7.90;;;16.40;99.90;;;;;;5093712;28;20042;-80
2023/05/08 05:26:28;;;;;;;14.65;7.60;;;16.40;99.90;;;;;;5095135;28;20111;-80
2023/05/08 05:28:54;;;;;;;11.75;8.23;;;16.40;99.90;;;;;;5095111;28;20070;-80
2023/05/08 05:31:19;;;;;;;15.18;8.45;;;16.40;99.90;;;;;;5093252;28;20024;-81
2023/05/08 05:33:45;;;;;;;14.85;8.60;;;16.40;99.90;;;;;;5093917;28;20073;-82
2023/05/08 05:36:11;;;;;;;15.70;8.60;;;16.40;99.90;;;;;;5093005;28;20020;-81
2023/05/08 05:38:36;;;;;;;12.15;7.88;;;16.40;99.90;;;;;;5095256;28;20052;-81
2023/05/08 05:41:02;;;;;;;12.20;7.97;;;16.40;99.90;;;;;;5094639;28;20453;-83
2023/05/08 05:43:28;;;;;;;11.80;7.90;;;16.40;99.90;;;;;;5094810;28;20093;-81
2023/05/08 05:45:55;;;;;;;12.75;7.65;;;16.40;99.90;;;;;;5093848;28;20028;-80
2023/05/08 05:48:20;;;;;;;12.10;7.43;;;16.50;99.90;;;;;;5092851;28;20032;-80
2023/05/08 05:50:46;;;;;;;15.40;8.18;;;16.50;99.90;;;;;;5093444;28;20084;-80
2023/05/08 05:53:12;;;;;;;13.95;8.45;;;16.50;99.90;;;;;;5092605;28;20030;-80
2023/05/08 05:55:37;;;;;;;12.65;8.00;;;16.50;99.90;;;;;;5093682;28;20028;-80
2023/05/08 05:58:03;;;;;;;11.95;8.07;;;16.50;99.90;;;;;;5093250;28;20024;-81
2023/05/08 06:00:30;;;;;;;14.27;7.82;;;16.50;99.90;;;;;;5093119;28;20490;-79
2023/05/08 06:02:56;;;;;;;10.25;7.22;;;16.50;99.90;;;;;;5092852;28;20024;-78
2023/05/08 06:05:22;;;;;;;12.05;7.47;;;16.50;99.90;;;;;;5092652;28;20020;-79
2023/05/08 06:07:48;;;;;;;10.63;7.43;;;16.50;99.90;;;;;;5092920;28;20032;-78
2023/05/08 06:10:13;;;;;;;12.88;7.95;;;16.50;99.90;;;;;;5093658;28;20032;-78
2023/05/08 06:12:39;;;;;;;11.60;7.97;;;16.50;99.90;;;;;;5094082;28;20026;-78
2023/05/08 06:15:05;;;;;;;12.30;8.27;;;16.50;99.90;;;;;;5092694;28;20350;-80
2023/05/08 06:17:31;;;;;;;11.48;7.88;;;16.50;99.90;;;;;;5094310;28;20123;-79
2023/05/08 06:19:56;;;;;;;10.85;7.13;;;16.50;99.90;;;;;;5092823;28;20472;-79
2023/05/08 06:22:23;;;;;;;12.68;7.90;;;16.50;99.90;;;;;;5092281;28;20016;-79
2023/05/08 06:24:53;;;;;;;10.60;7.70;;;16.50;99.90;;;;;;5092600;28;20032;-80
2023/05/08 06:27:22;;;;;;;9.02;6.50;;;16.50;99.90;;;;;;5092065;28;20119;-79
2023/05/08 06:29:52;;;;;;;11.82;6.70;;;16.60;99.90;;;;;;5092663;28;20047;-78
2023/05/08 06:32:21;;;;;;;10.98;7.13;;;16.60;99.90;;;;;;5092301;28;20024;-79
2023/05/08 06:34:47;;;;;;;9.90;7.07;;;16.60;99.90;;;;;;5092760;28;20056;-78
2023/05/08 06:37:12;;;;;;;10.15;7.47;;;16.70;99.90;;;;;;5093396;28;20070;-79
2023/05/08 06:39:38;;;;;;;11.07;6.55;;;16.70;99.90;;;;;;5092105;28;20044;-79
2023/05/08 06:42:05;;;;;;;10.27;7.03;;;16.80;99.90;;;;;;5090825;28;20036;-80
2023/05/08 06:44:31;;;;;;;9.43;6.90;;;16.80;99.90;;;;;;5092531;28;20020;-79
2023/05/08 06:46:57;;;;;;;11.02;7.03;;;16.80;99.90;;;;;;5100268;28;20028;-79
2023/05/08 06:49:22;;;;;;;11.27;6.68;;;16.80;99.90;;;;;;5113352;28;20073;-79
2023/05/08 06:51:48;;;;;;;13.80;7.95;;;16.80;99.90;;;;;;5113317;28;20035;-79
2023/05/08 06:54:14;;;;;;;12.02;7.35;;;16.90;99.90;;;;;;5104408;28;20023;-79
2023/05/08 06:56:39;;;;;;;13.75;7.55;;;16.90;99.90;;;;;;5091508;28;20539;-79
2023/05/08 06:59:05;;;;;;;15.32;7.72;;;16.80;99.90;;;;;;5090844;28;20028;-81
2023/05/08 07:01:31;;;;;;;12.25;7.70;;;16.80;99.90;;;;;;5091924;28;20123;-80
2023/05/08 07:03:56;;;;;;;13.23;7.75;;;16.90;99.90;;;;;;5092902;28;20385;-79
2023/05/08 07:06:22;;;;;;;12.27;8.05;;;16.90;99.90;;;;;;5090959;28;20030;-80
2023/05/08 07:08:48;;;;;;;12.55;7.68;;;16.90;99.90;;;;;;5093555;28;20036;-79
2023/05/08 07:11:14;;;;;;;14.07;7.45;;;17.00;99.90;;;;;;5094056;28;20028;-79
2023/05/08 07:13:42;;;;;;;12.38;7.93;;;17.00;99.90;;;;;;5094916;28;20119;-79
2023/05/08 07:16:11;;;;;;;14.05;7.70;;;17.10;99.90;;;;;;5095946;28;20032;-81
2023/05/08 07:18:36;;;;;;;12.23;8.07;;;17.10;99.90;;;;;;5096125;28;20024;-79
2023/05/08 07:21:02;;;;;;;10.25;7.80;;;17.20;99.90;;;;;;5096125;28;20082;-79
2023/05/08 07:23:28;;;;;;;11.50;7.57;;;17.20;99.90;;;;;;5096766;28;20483;-79
2023/05/08 07:25:54;;;;;;;10.20;7.13;;;17.30;99.90;;;;;;5096456;28;20025;-79
2023/05/08 07:28:19;;;;;;;12.00;7.75;;;17.30;99.90;;;;;;5095888;28;20028;-80
2023/05/08 07:30:45;;;;;;;15.65;9.00;;;17.30;99.90;;;;;;5096982;28;20039;-78
2023/05/08 07:33:11;;;;;;;11.38;7.97;;;17.30;99.90;;;;;;5095576;28;20020;-79
2023/05/08 07:35:41;;;;;;;11.98;8.00;;;17.30;99.90;;;;;;5097084;28;20027;-79
2023/05/08 07:38:07;;;;;;;11.90;7.60;;;17.30;99.90;;;;;;5096765;28;20024;-80
2023/05/08 07:40:32;;;;;;;10.48;7.15;;;17.30;99.90;;;;;;5095073;28;20044;-78
2023/05/08 07:42:58;;;;;;;10.70;7.25;;;17.40;99.90;;;;;;5095762;28;20031;-79
2023/05/08 07:45:24;;;;;;;8.65;6.43;;;17.50;99.90;;;;;;5095070;28;20028;-79
2023/05/08 07:47:56;;;;;;;8.50;6.00;;;17.50;99.90;;;;;;5095911;28;20039;-79
2023/05/08 07:50:22;;;;;;;9.52;5.80;;;17.50;99.90;;;;;;5095328;28;20031;-80
2023/05/08 07:52:48;;;;;;;9.60;6.00;;;17.60;99.90;;;;;;5075314;28;20033;-79
2023/05/08 07:55:14;;;;;;;8.20;5.40;;;17.60;99.90;;;;;;5075944;28;20025;-79
2023/05/08 07:57:41;;;;;;;7.45;4.93;;;17.60;99.90;;;;;;5095274;28;20062;-79
2023/05/08 08:00:09;;;;;;;7.03;4.63;;;17.70;99.90;;;;;;5095247;28;20040;-80
2023/05/08 08:02:35;;;;;;;7.60;5.22;;;17.60;99.90;;;;;;5095878;28;20504;-80
2023/05/08 08:05:00;;;;;;;9.70;4.75;;;17.70;99.90;;;;;;5095850;28;20099;-80
2023/05/08 08:07:26;;;;;;;7.35;4.97;;;17.70;99.90;;;;;;5095660;28;20028;-80
2023/05/08 08:09:51;;;;;;;8.05;5.07;;;17.70;99.90;;;;;;5095463;28;20546;-84
2023/05/08 08:12:17;;;;;;;6.93;5.00;;;17.80;99.90;;;;;;5093858;28;20024;-79
2023/05/08 08:14:43;;;;;;;8.30;5.55;;;17.90;99.90;;;;;;5094723;28;20077;-77
2023/05/08 08:17:08;;;;;;;8.02;5.13;;;17.80;99.90;;;;;;5094470;28;20055;-78
2023/05/08 08:19:34;;;;;;;10.18;6.35;;;17.90;99.90;;;;;;5094534;28;20024;-77
2023/05/08 08:22:00;;;;;;;10.35;5.60;;;17.90;99.90;;;;;;5094622;28;20028;-81
2023/05/08 08:24:26;;;;;;;8.40;5.90;;;17.90;99.90;;;;;;5089702;28;20030;-79
2023/05/08 08:26:51;;;;;;;8.68;5.53;;;17.90;99.90;;;;;;5096642;28;20529;-82
2023/05/08 08:29:17;;;;;;;9.85;5.90;;;17.90;99.90;;;;;;5095093;28;20103;-80
2023/05/08 08:31:42;;;;;;;9.10;5.60;;;17.90;99.90;;;;;;5093555;28;20499;-79
2023/05/08 08:34:08;;;;;;;8.70;5.60;;;17.80;99.90;;;;;;5095075;28;20370;-80
2023/05/08 08:36:34;;;;;;;7.85;5.75;;;17.80;99.90;;;;;;5094528;28;20108;-79
2023/05/08 08:38:59;;;;;;;8.05;5.95;;;17.80;99.90;;;;;;5095094;28;20069;-79
2023/05/08 08:41:26;;;;;;;7.22;5.28;;;17.70;99.90;;;;;;5093483;28;20036;-80
2023/05/08 08:43:53;;;;;;;9.52;6.00;;;17.70;99.90;;;;;;5095834;28;20084;-84
2023/05/08 08:46:24;;;;;;;9.43;6.13;;;17.70;99.90;;;;;;5095660;28;20074;-90
2023/05/08 08:48:52;;;;;;;8.50;6.13;;;17.80;99.90;;;;;;5075265;28;20028;-90
2023/05/08 08:51:27;;;;;;;11.07;6.05;;;17.80;99.90;;;;;;5091976;28;20036;-87
2023/05/08 08:54:07;;;;;;;10.38;7.15;;;17.80;99.90;;;;;;5094964;28;20031;-83
2023/05/08 08:56:38;;;;;;;10.93;7.20;;;17.90;99.90;;;;;;5094398;28;20024;-83
2023/05/08 08:59:05;;;;;;;14.07;7.28;;;18.00;99.90;;;;;;5094878;28;20115;-84
2023/05/08 09:01:37;;;;;;;12.32;7.78;;;18.10;99.90;;;;;;5095205;28;20111;-85
2023/05/08 09:04:04;;;;;;;14.85;7.78;;;18.20;99.90;;;;;;5094767;28;20051;-83
2023/05/08 09:06:33;;;;;;;11.73;7.63;;;18.20;99.90;;;;;;5095334;28;20016;-84
2023/05/08 09:08:59;;;;;;;14.02;8.48;;;18.20;99.90;;;;;;5095588;28;20107;-84
2023/05/08 09:11:25;;;;;;;16.70;9.15;;;18.20;99.90;;;;;;5096744;28;20035;-82
2023/05/08 09:13:50;;;;;;;14.38;9.32;;;18.10;99.90;;;;;;5094715;28;20385;-84
2023/05/08 09:16:17;;;;;;;16.67;9.38;;;18.00;99.90;;;;;;5094332;28;20051;-84
2023/05/08 09:18:43;;;;;;;17.40;10.38;;;17.90;99.90;;;;;;5094173;28;20067;-85
2023/05/08 09:21:08;;;;;;;17.00;9.52;;;17.90;99.90;;;;;;5094342;28;20460;-85
2023/05/08 09:24:03;;;;;;;15.18;9.48;;;18.00;99.90;;;;;;5093586;28;20023;-83
2023/05/08 09:26:35;;;;;;;15.80;9.68;;;17.90;99.90;;;;;;5094449;28;20020;-82
2023/05/08 09:29:10;;;;;;;18.45;10.40;;;17.90;99.90;;;;;;5094917;28;20024;-82
2023/05/08 09:31:39;;;;;;;17.23;9.75;;;18.00;99.90;;;;;;5094603;28;20093;-86
2023/05/08 09:34:10;;;;;;;19.48;10.45;;;18.00;99.90;;;;;;5093800;28;20027;-82
2023/05/08 09:36:37;;;;;;;19.27;10.07;;;18.00;99.90;;;;;;5094674;28;20061;-80
2023/05/08 09:39:03;;;;;;;18.00;9.65;;;18.10;99.90;;;;;;5094912;28;20152;-81
2023/05/08 09:41:28;;;;;;;16.75;9.93;;;18.10;99.90;;;;;;5097063;28;20057;-81
2023/05/08 09:44:05;;;;;;;15.55;9.25;;;18.20;99.90;;;;;;5094578;28;20457;-81
2023/05/08 09:46:32;;;;;;;16.85;10.07;;;18.30;99.90;;;;;;5092890;28;20020;-81
2023/05/08 09:49:01;;;;;;;15.93;9.95;;;18.30;99.90;;;;;;5093667;28;20054;-81
2023/05/08 09:51:29;;;;;;;16.83;9.68;;;18.30;99.90;;;;;;5086794;28;20034;-82
2023/05/08 09:53:57;;;;;;;16.05;8.77;;;18.30;99.90;;;;;;5093483;28;20024;-83
2023/05/08 09:56:38;;;;;;;15.75;8.82;;;18.30;99.90;;;;;;5094318;28;20031;-83
2023/05/08 09:59:28;;;;;;;15.30;8.40;;;18.30;99.90;;;;;;5093593;28;20046;-79
2023/05/08 10:01:54;;;;;;;14.07;9.13;;;18.40;99.90;;;;;;5092401;28;20123;-80
2023/05/08 10:04:36;;;;;;;16.13;9.77;;;18.40;99.90;;;;;;5093072;28;20024;-79
2023/05/08 10:07:02;;;;;;;;;;;18.30;99.90;;;;;;5092555;28;20023;-78
2023/05/08 10:09:33;;;;;;;15.48;9.70;;;18.30;99.90;;;;;;5091720;28;20273;-79
2023/05/08 10:11:59;;;;;;;;;;;18.30;99.90;;;;;;5104305;28;20032;-78
2023/05/08 10:14:24;;;;;;;16.27;9.68;;;18.30;99.90;;;;;;5092025;28;19911;-79
2023/05/08 10:16:51;;;;;;;18.17;9.30;;;18.40;99.90;;;;;;5092491;28;20464;-79
2023/05/08 10:19:27;;;;;;;15.95;9.20;;;18.40;99.90;;;;;;5093054;28;20091;-79
2023/05/08 10:21:55;;;;;;;12.50;7.97;;;18.50;99.90;;;;;;5093275;28;20056;-79
2023/05/08 10:24:31;;;;;;;13.68;8.57;;;18.30;99.90;;;;;;5081052;28;20076;-79
2023/05/08 10:27:08;;;;;;;14.73;8.77;;;18.30;99.90;;;;;;5077886;28;20473;-78
2023/05/08 10:29:46;;;;;;;13.55;8.27;;;18.20;99.90;;;;;;5092854;28;20027;-79
2023/05/08 10:32:18;;;;;;;12.10;8.23;;;18.20;99.90;;;;;;5091977;28;20024;-82
2023/05/08 10:34:48;;;;;;;14.65;8.43;;;18.20;99.90;;;;;;5091763;28;20028;-78
2023/05/08 10:37:14;;;;;;;15.20;7.97;;;18.20;99.90;;;;;;5091694;28;20055;-82
2023/05/08 10:39:41;;;;;;;11.02;7.38;;;18.20;99.90;;;;;;5092713;28;20048;-79
2023/05/08 10:42:07;;;;;;;11.98;7.43;;;18.20;99.90;;;;;;5091685;28;20040;-79
2023/05/08 10:44:33;;;;;;;11.70;7.35;;;18.20;99.90;;;;;;5092709;28;20033;-78
2023/05/08 10:47:26;;;;;;;12.35;7.47;;;18.30;99.90;;;;;;5092927;28;20376;-79
2023/05/08 10:50:19;;;;;;;10.77;7.20;;;18.30;99.90;;;;;;5092216;28;20562;-79
2023/05/08 10:53:12;;;;;;;10.57;7.20;;;18.30;99.90;;;;;;5092213;28;20024;-79
2023/05/08 10:55:41;;;;;;;10.05;7.20;;;18.30;99.90;;;;;;5091588;28;20085;-78
2023/05/08 10:58:28;;;;;;;11.85;7.07;;;18.40;99.90;;;;;;5093188;28;20490;-79
2023/05/08 11:00:58;;;;;;;10.07;6.85;;;18.50;99.90;;;;;;5093006;28;20379;-79
2023/05/08 11:03:25;;;;;;;10.60;7.47;;;18.60;99.90;;;;;;5092595;28;20441;-79
2023/05/08 11:05:52;;;;;;;12.90;7.60;;;18.60;99.90;;;;;;5091676;28;20020;-79
2023/05/08 11:08:24;;;;;;;9.93;6.88;;;18.60;99.90;;;;;;5092191;28;20094;-79
2023/05/08 11:10:58;;;;;;;9.88;6.45;;;18.60;99.90;;;;;;5100011;28;20106;-79
2023/05/08 11:13:40;;;;;;;10.48;6.78;;;18.60;99.90;;;;;;5095827;28;20032;-78
2023/05/08 11:16:06;;;;;;;10.10;6.28;;;18.50;99.90;;;;;;5091608;28;20073;-79
2023/05/08 11:18:32;;;;;;;8.38;6.40;;;18.50;99.90;;;;;;5091958;28;20560;-78
2023/05/08 11:21:18;;;;;;;9.07;6.50;;;18.50;99.90;;;;;;5092658;28;20111;-78
2023/05/08 11:23:55;;;;;;;10.52;6.20;;;18.50;99.90;;;;;;5088555;28;20027;-79
2023/05/08 11:26:21;;;;;;;8.55;6.45;;;18.50;99.90;;;;;;5091093;28;20032;-80
2023/05/08 11:28:53;;;;;;;9.23;6.30;;;18.70;99.90;;;;;;5092530;28;20024;-79
2023/05/08 11:31:18;;;;;;;;;;;18.80;99.90;;;;;;5092753;28;20028;-80
2023/05/08 11:33:44;;;;;;;8.15;5.95;;;18.90;99.90;;;;;;5091790;28;19926;-79
2023/05/08 11:36:15;;;;;;;8.18;6.07;;;18.90;99.90;;;;;;5091761;28;20020;-79
2023/05/08 11:38:42;;;;;;;7.30;5.75;;;18.90;99.90;;;;;;5090746;28;20091;-79
2023/05/08 11:41:09;;;;;;;9.82;6.18;;;19.00;99.90;;;;;;5091576;28;20036;-79
2023/05/08 11:43:48;;;;;;;9.80;6.43;;;19.00;99.90;;;;;;5091573;28;20209;-79
2023/05/08 11:46:16;;;;;;;11.80;6.50;;;19.00;99.90;;;;;;5091107;28;20031;-80
2023/05/08 11:48:42;;;;;;;9.10;6.40;;;19.00;99.90;;;;;;5091008;28;20026;-79
2023/05/08 11:51:08;;;;;;;8.15;6.10;;;18.90;99.90;;;;;;5091680;28;20116;-79
2023/05/08 11:53:35;;;;;;;10.48;6.10;;;18.90;99.90;;;;;;5090542;28;20090;-80
2023/05/08 11:56:02;;;;;;;8.00;5.57;;;18.90;99.90;;;;;;5091238;28;20028;-79
2023/05/08 11:58:28;;;;;;;11.32;6.32;;;18.90;99.90;;;;;;5088578;28;20043;-80
2023/05/08 12:00:54;;;;;;;9.82;6.78;;;18.90;99.90;;;;;;5093869;28;20028;-79
2023/05/08 12:03:21;;;;;;;9.13;6.40;;;18.90;99.90;;;;;;5095349;28;20104;-81
2023/05/08 12:05:48;;;;;;;7.53;5.63;;;18.90;99.90;;;;;;5094223;28;20031;-79
2023/05/08 12:08:16;;;;;;;8.45;6.03;;;18.90;99.90;;;;;;5094504;28;20054;-79
2023/05/08 12:10:52;;;;;;;7.70;5.53;;;18.90;99.90;;;;;;5094434;28;20032;-79
2023/05/08 12:13:19;;;;;;;8.00;5.93;;;18.90;99.90;;;;;;5094131;28;20024;-80
2023/05/08 12:15:46;;;;;;;7.57;6.00;;;18.90;99.90;;;;;;5094936;28;20376;-80
2023/05/08 12:18:12;;;;;;;8.95;6.13;;;18.90;99.90;;;;;;5094650;28;20526;-79
2023/05/08 12:20:38;;;;;;;9.43;6.53;;;18.90;99.90;;;;;;5095328;28;20059;-80
2023/05/08 12:23:04;;;;;;;9.35;6.18;;;18.90;99.90;;;;;;5094445;28;20454;-80
2023/05/08 12:25:30;;;;;;;9.20;6.47;;;18.90;99.90;;;;;;5095120;28;20111;-80
2023/05/08 12:27:55;;;;;;;10.40;5.93;;;19.00;99.90;;;;;;5094768;28;20073;-79
2023/05/08 12:30:21;;;;;;;9.88;6.13;;;19.10;99.90;;;;;;5094158;28;20039;-79
2023/05/08 12:32:48;;;;;;;9.30;6.07;;;19.30;99.90;;;;;;5095886;28;20028;-79
2023/05/08 12:35:14;;;;;;;10.52;6.50;;;19.40;99.90;;;;;;5095831;28;20024;-79
2023/05/08 12:37:40;;;;;;;9.43;6.40;;;19.50;99.90;;;;;;5094531;28;20460;-78
2023/05/08 12:40:07;;;;;;;9.68;6.53;;;19.70;99.90;;;;;;5095280;28;20064;-80
2023/05/08 12:42:49;;;;;;;8.30;6.60;;;19.70;99.90;;;;;;5114340;28;20032;-80
2023/05/08 12:45:23;;;;;;;11.73;6.80;;;19.80;99.90;;;;;;5095331;28;20046;-79
2023/05/08 12:47:50;;;;;;;8.52;6.20;;;19.80;99.90;;;;;;5094318;28;20115;-79
2023/05/08 12:50:17;;;;;;;9.15;6.40;;;19.90;99.90;;;;;;5095894;28;20038;-79
2023/05/08 12:52:43;;;;;;;8.82;6.22;;;19.90;99.90;;;;;;5093930;28;20054;-79